Aérodrome :
LOGIN :

S'inscrire | Disclaimer

   EN    FR    IT 

 










Légende :    VFR   VFR Marginal   IFR   IFR Intensif   IFR Très Intensif
Visi : 
Plafond : 
>= 8 km
>= 3000ft
5 à 8 km
1000 à 3000 ft
1500m à 5 km
500 à 1000 ft
800 à 1500m
200 à 500 ft
< 800m
< 200 ft
Symboles :   Orages  Brouillard  Fortes neiges  Fortes précipitations  Vent > 20 kt
SIGMETs :   Divers  Orages  Givrage  Turbulence  Onde Orograph.  Cendres Volcan.







- Altitude de l'aérodrome : 26 ft
- Code IATA : BIA
- Voir les cartes d'approche


LFKB - Bastia

DERNIER METAR :
  • 170930Z AUTO 20006KT CAVOK 13/03 Q1030 NOSIG

METARs EXPIRÉS :
  • 170900Z AUTO 21005KT CAVOK 12/02 Q1030 NOSIG
  • 170830Z AUTO 22007KT CAVOK 11/01 Q1030 NOSIG
  • 170800Z AUTO 22008KT CAVOK 10/01 Q1030 NOSIG
  • 170730Z AUTO 22007KT CAVOK 08/01 Q1030 NOSIG
  • 170700Z AUTO 22006KT CAVOK 06/00 Q1030 NOSIG

TAF TAF LFKB
Valide du 17 à 09h jusqu'au 18 à 09h UTC


170800Z 1709/1809 22007KT CAVOK TX16/1712Z TN04/1806Z
BECMG 1709/1711 12006KT
BECMG 1718/1720 22005KT
TEMPO 1715/1809 BKN010
PROB30
TEMPO 1721/1806 0800 FG
ATIS : +33 4 95 59 19 40
Pas de NOTAMs connus pour ce terrain.



MET'MAP, la Météo Aéronautique d'un coup d'oeil ! - Copyright ORBIFLY Décembre 2007 - Disclaimer

ORBIFLY MET'MAP TEAM :

Programmation & Développement : Alexandra Zaïnal
Conception & Développement : Baudouin d'Aumeries
Co-Programmation & Développement : Marc-Olivier Méhu
Soutien technique & logistique : Manuel Goepfert

Contact : metmap@orbifly.com




SOURCES & CREDITS :

   NOAA